createdAt,value
2023-02-13T00:01:40.479Z,100.00
2023-02-13T00:04:07.505Z,100.00
2023-02-13T00:06:34.480Z,100.00
2023-02-13T00:09:02.720Z,100.00
2023-02-13T00:11:29.698Z,100.00
2023-02-13T00:13:56.782Z,100.00
2023-02-13T00:16:23.872Z,100.00
2023-02-13T00:18:50.868Z,100.00
2023-02-13T00:21:17.923Z,100.00
2023-02-13T00:23:45.020Z,100.00
2023-02-13T00:26:15.478Z,100.00
2023-02-13T00:28:43.553Z,100.00
2023-02-13T00:31:22.078Z,100.00
2023-02-13T00:33:49.288Z,100.00
2023-02-13T00:36:20.839Z,100.00
2023-02-13T00:38:49.226Z,100.00
2023-02-13T00:41:19.051Z,100.00
2023-02-13T00:43:48.117Z,100.00
2023-02-13T00:46:17.015Z,100.00
2023-02-13T00:48:45.000Z,100.00
2023-02-13T00:51:12.887Z,100.00
2023-02-13T00:53:40.432Z,100.00
2023-02-13T00:56:07.987Z,100.00
2023-02-13T00:58:35.020Z,100.00
2023-02-13T01:01:02.190Z,100.00
2023-02-13T01:03:29.630Z,100.00
2023-02-13T01:05:58.340Z,100.00
2023-02-13T01:08:28.297Z,100.00
2023-02-13T01:10:56.460Z,100.00
2023-02-13T01:13:23.858Z,100.00
2023-02-13T01:15:51.618Z,100.00
2023-02-13T01:18:20.634Z,100.00
2023-02-13T01:21:00.064Z,100.00
2023-02-13T01:23:31.713Z,100.00
2023-02-13T01:25:58.695Z,100.00
2023-02-13T01:28:25.840Z,100.00
2023-02-13T01:30:57.922Z,100.00
2023-02-13T01:33:28.194Z,100.00
2023-02-13T01:35:55.284Z,100.00
2023-02-13T01:38:22.362Z,100.00
2023-02-13T01:40:54.507Z,100.00
2023-02-13T01:43:23.632Z,100.00
2023-02-13T01:45:55.751Z,100.00
2023-02-13T01:48:27.756Z,100.00
2023-02-13T01:51:09.012Z,100.00
2023-02-13T01:53:41.664Z,100.00
2023-02-13T01:56:45.411Z,100.00
2023-02-13T01:59:18.456Z,100.00
2023-02-13T02:01:45.940Z,100.00
2023-02-13T02:04:20.020Z,100.00
2023-02-13T02:06:52.984Z,100.00
2023-02-13T02:09:26.654Z,100.00
2023-02-13T02:12:02.848Z,100.00
2023-02-13T02:14:29.955Z,100.00
2023-02-13T02:16:57.772Z,100.00
2023-02-13T02:19:33.852Z,100.00
2023-02-13T02:22:31.099Z,100.00
2023-02-13T02:25:22.129Z,100.00
2023-02-13T02:28:13.832Z,100.00
2023-02-13T02:31:04.542Z,100.00
2023-02-13T02:34:01.379Z,100.00
2023-02-13T02:36:49.483Z,100.00
2023-02-13T02:39:31.403Z,100.00
2023-02-13T02:42:53.257Z,100.00
2023-02-13T02:45:38.485Z,100.00
2023-02-13T02:48:45.457Z,100.00
2023-02-13T02:51:49.302Z,100.00
2023-02-13T02:54:48.193Z,100.00
2023-02-13T02:57:23.339Z,100.00
2023-02-13T03:00:11.792Z,100.00
2023-02-13T03:02:57.284Z,100.00
2023-02-13T03:05:53.959Z,100.00
2023-02-13T03:08:41.212Z,100.00
2023-02-13T03:11:27.913Z,100.00
2023-02-13T03:13:55.782Z,100.00
2023-02-13T03:16:44.191Z,100.00
2023-02-13T03:20:06.375Z,100.00
2023-02-13T03:23:08.406Z,100.00
2023-02-13T03:26:18.602Z,100.00
2023-02-13T03:29:33.286Z,100.00
2023-02-13T03:32:27.961Z,100.00
2023-02-13T03:35:39.017Z,100.00
2023-02-13T03:38:17.263Z,100.00
2023-02-13T03:41:10.171Z,100.00
2023-02-13T03:43:47.750Z,100.00
2023-02-13T03:46:17.503Z,100.00
2023-02-13T03:49:04.866Z,100.00
2023-02-13T03:52:08.459Z,100.00
2023-02-13T03:55:09.946Z,100.00
2023-02-13T03:57:58.044Z,100.00
2023-02-13T04:00:29.462Z,100.00
2023-02-13T04:03:29.256Z,100.00
2023-02-13T04:06:09.238Z,100.00
2023-02-13T04:08:36.353Z,100.00
2023-02-13T04:11:15.982Z,100.00
2023-02-13T04:13:55.526Z,100.00
2023-02-13T04:16:34.835Z,100.00
2023-02-13T04:19:03.182Z,100.00
2023-02-13T04:21:38.382Z,100.00
2023-02-13T04:24:05.786Z,100.00
2023-02-13T04:26:40.708Z,100.00
2023-02-13T04:29:08.489Z,100.00
2023-02-13T04:31:35.740Z,100.00
2023-02-13T04:34:02.866Z,100.00
2023-02-13T04:36:30.183Z,100.00
2023-02-13T04:38:57.197Z,100.00
2023-02-13T04:41:24.283Z,100.00
2023-02-13T04:43:52.528Z,100.00
2023-02-13T04:46:19.787Z,100.00
2023-02-13T04:48:46.798Z,100.00
2023-02-13T04:51:14.611Z,100.00
2023-02-13T04:53:41.672Z,100.00
2023-02-13T04:56:08.730Z,100.00
2023-02-13T04:58:35.696Z,100.00
2023-02-13T05:01:03.155Z,100.00
2023-02-13T05:03:30.175Z,100.00
2023-02-13T05:05:57.273Z,100.00
2023-02-13T05:08:24.232Z,100.00
2023-02-13T05:10:51.257Z,100.00
2023-02-13T05:13:21.630Z,100.00
2023-02-13T05:15:49.437Z,100.00
2023-02-13T05:18:16.464Z,100.00
2023-02-13T05:20:43.385Z,100.00
2023-02-13T05:23:23.879Z,100.00
2023-02-13T05:25:51.037Z,100.00
2023-02-13T05:28:36.363Z,100.00
2023-02-13T05:31:03.668Z,100.00
2023-02-13T05:33:34.518Z,100.00
2023-02-13T05:36:01.602Z,100.00
2023-02-13T05:38:28.578Z,100.00
2023-02-13T05:40:56.049Z,100.00
2023-02-13T05:43:23.290Z,100.00
2023-02-13T05:46:04.908Z,100.00
2023-02-13T05:48:32.775Z,100.00
2023-02-13T05:50:59.857Z,100.00
2023-02-13T05:53:27.419Z,100.00
2023-02-13T05:55:54.390Z,100.00
2023-02-13T05:58:21.984Z,100.00
2023-02-13T06:00:49.026Z,100.00
2023-02-13T06:03:15.998Z,100.00
2023-02-13T06:05:42.932Z,100.00
2023-02-13T06:08:09.919Z,100.00
2023-02-13T06:10:36.846Z,100.00
2023-02-13T06:13:03.870Z,100.00
2023-02-13T06:15:31.440Z,100.00
2023-02-13T06:17:58.395Z,100.00
2023-02-13T06:20:25.393Z,100.00
2023-02-13T06:22:53.519Z,100.00
2023-02-13T06:25:20.949Z,100.00
2023-02-13T06:27:49.246Z,100.00
2023-02-13T06:30:17.641Z,100.00
2023-02-13T06:32:47.579Z,100.00
2023-02-13T06:35:15.321Z,100.00
2023-02-13T06:37:45.898Z,100.00
2023-02-13T06:40:14.993Z,100.00
2023-02-13T06:42:45.720Z,100.00
2023-02-13T06:45:13.722Z,100.00
2023-02-13T06:47:48.550Z,100.00
2023-02-13T06:50:16.921Z,100.00
2023-02-13T06:52:51.814Z,100.00
2023-02-13T06:55:19.225Z,100.00
2023-02-13T06:57:46.808Z,100.00
2023-02-13T07:00:17.030Z,100.00
2023-02-13T07:02:46.395Z,100.00
2023-02-13T07:05:14.218Z,100.00
2023-02-13T07:07:42.736Z,100.00
2023-02-13T07:10:13.917Z,100.00
2023-02-13T07:12:41.164Z,100.00
2023-02-13T07:15:08.973Z,100.00
2023-02-13T07:17:36.453Z,100.00
2023-02-13T07:20:05.126Z,100.00
2023-02-13T07:22:35.501Z,100.00
2023-02-13T07:25:02.534Z,100.00
2023-02-13T07:27:29.652Z,100.00
2023-02-13T07:29:57.761Z,100.00
2023-02-13T07:32:25.813Z,100.00
2023-02-13T07:35:01.682Z,100.00
2023-02-13T07:37:31.693Z,100.00
2023-02-13T07:39:58.716Z,100.00
2023-02-13T07:42:25.753Z,100.00
2023-02-13T07:44:52.713Z,100.00
2023-02-13T07:47:20.325Z,100.00
2023-02-13T07:49:47.549Z,100.00
2023-02-13T07:52:14.686Z,100.00
2023-02-13T07:54:47.832Z,100.00
2023-02-13T07:57:16.350Z,100.00
2023-02-13T07:59:43.847Z,100.00
2023-02-13T08:02:15.913Z,100.00
2023-02-13T08:04:49.306Z,100.00
2023-02-13T08:07:18.449Z,100.00
2023-02-13T08:10:04.761Z,100.00
2023-02-13T08:12:35.410Z,100.00
2023-02-13T08:15:03.072Z,100.00
2023-02-13T08:17:30.048Z,100.00
2023-02-13T08:19:57.420Z,100.00
2023-02-13T08:22:24.505Z,100.00
2023-02-13T08:24:51.500Z,100.00
2023-02-13T08:27:18.580Z,100.00
2023-02-13T08:29:45.632Z,100.00
2023-02-13T08:32:12.693Z,100.00
2023-02-13T08:34:39.853Z,100.00
2023-02-13T08:37:06.875Z,100.00
2023-02-13T08:39:34.108Z,100.00
2023-02-13T08:42:01.213Z,100.00
2023-02-13T08:44:28.314Z,100.00
2023-02-13T08:46:56.056Z,100.00
2023-02-13T08:49:23.625Z,100.00
2023-02-13T08:51:51.178Z,100.00
2023-02-13T08:54:18.260Z,100.00
2023-02-13T08:56:45.700Z,100.00
2023-02-13T08:59:12.934Z,100.00
2023-02-13T09:01:40.495Z,100.00
2023-02-13T09:04:07.556Z,100.00
2023-02-13T09:06:34.499Z,100.00
2023-02-13T09:09:01.646Z,100.00
2023-02-13T09:11:28.596Z,100.00
2023-02-13T09:13:55.967Z,100.00
2023-02-13T09:16:23.651Z,100.00
2023-02-13T09:18:51.699Z,100.00
2023-02-13T09:21:21.159Z,100.00
2023-02-13T09:23:48.288Z,100.00
2023-02-13T09:26:16.475Z,100.00
2023-02-13T09:28:44.541Z,100.00
2023-02-13T09:31:17.566Z,100.00
2023-02-13T09:33:46.552Z,100.00
2023-02-13T09:36:19.369Z,100.00
2023-02-13T09:38:55.206Z,100.00
2023-02-13T09:41:36.916Z,100.00
2023-02-13T09:44:35.711Z,100.00
2023-02-13T09:47:32.985Z,100.00
2023-02-13T09:50:28.181Z,100.00
2023-02-13T09:52:57.988Z,100.00
2023-02-13T09:55:32.722Z,100.00
2023-02-13T09:58:31.273Z,100.00
2023-02-13T10:01:02.589Z,100.00
2023-02-13T10:04:11.227Z,100.00
2023-02-13T10:06:50.950Z,100.00
2023-02-13T10:09:35.959Z,100.00
2023-02-13T10:12:28.068Z,100.00
2023-02-13T10:15:19.248Z,100.00
2023-02-13T10:17:58.322Z,100.00
2023-02-13T10:21:00.879Z,100.00
2023-02-13T10:23:37.170Z,100.00
2023-02-13T10:26:22.147Z,100.00
2023-02-13T10:29:24.788Z,100.00
2023-02-13T10:31:56.100Z,100.00
2023-02-13T10:34:27.556Z,100.00
2023-02-13T10:36:55.353Z,100.00
2023-02-13T10:39:29.541Z,100.00
2023-02-13T10:42:24.103Z,100.00
2023-02-13T10:45:10.176Z,100.00
2023-02-13T10:47:43.245Z,100.00
2023-02-13T10:50:33.282Z,100.00
2023-02-13T10:53:30.785Z,100.00
2023-02-13T10:56:34.856Z,100.00
2023-02-13T10:59:45.161Z,100.00
2023-02-13T11:02:29.128Z,100.00
2023-02-13T11:05:03.319Z,100.00
2023-02-13T11:07:31.892Z,100.00
2023-02-13T11:10:06.202Z,100.00
2023-02-13T11:12:35.017Z,100.00
2023-02-13T11:15:06.748Z,100.00
2023-02-13T11:17:42.367Z,100.00
2023-02-13T11:20:30.526Z,100.00
2023-02-13T11:23:29.758Z,100.00
2023-02-13T11:26:00.905Z,100.00
2023-02-13T11:28:36.298Z,100.00
2023-02-13T11:31:26.315Z,100.00
2023-02-13T11:33:54.867Z,100.00
2023-02-13T11:36:33.751Z,100.00
2023-02-13T11:39:21.092Z,100.00
2023-02-13T11:41:52.572Z,100.00
2023-02-13T11:44:26.672Z,100.00
2023-02-13T11:46:57.743Z,100.00
2023-02-13T11:49:33.888Z,98.93
2023-02-13T11:52:26.901Z,98.61
2023-02-13T11:55:01.547Z,97.39
2023-02-13T11:57:37.387Z,96.78
2023-02-13T12:00:32.443Z,95.64
2023-02-13T12:02:59.745Z,92.93
2023-02-13T12:05:28.740Z,93.61
2023-02-13T12:08:02.135Z,92.43
2023-02-13T12:10:32.974Z,91.91
2023-02-13T12:13:19.124Z,91.06
2023-02-13T12:15:52.384Z,90.70
2023-02-13T12:18:45.277Z,88.58
2023-02-13T12:22:18.655Z,88.13
2023-02-13T12:25:56.835Z,87.70
2023-02-13T12:28:47.843Z,87.28
2023-02-13T12:31:52.972Z,87.31
2023-02-13T12:35:04.599Z,84.31
2023-02-13T12:37:56.997Z,83.75
2023-02-13T12:40:34.288Z,83.95
2023-02-13T12:43:36.768Z,82.59
2023-02-13T12:46:33.921Z,83.08
2023-02-13T12:49:34.425Z,82.67
2023-02-13T12:52:31.422Z,81.30
2023-02-13T12:55:19.670Z,80.07
2023-02-13T12:58:17.481Z,77.78
2023-02-13T13:00:59.772Z,79.20
2023-02-13T13:03:45.217Z,78.73
2023-02-13T13:06:30.223Z,78.07
2023-02-13T13:09:31.220Z,78.37
2023-02-13T13:12:21.620Z,77.67
2023-02-13T13:14:55.156Z,77.11
2023-02-13T13:18:01.277Z,77.32
2023-02-13T13:21:11.892Z,76.06
2023-02-13T13:24:00.456Z,76.17
2023-02-13T13:26:40.775Z,76.06
2023-02-13T13:29:22.822Z,75.87
2023-02-13T13:32:07.562Z,73.68
2023-02-13T13:34:39.266Z,75.34
2023-02-13T13:38:03.580Z,73.97
2023-02-13T13:40:30.502Z,74.31
2023-02-13T13:43:27.576Z,74.34
2023-02-13T13:46:22.401Z,73.41
2023-02-13T13:49:10.434Z,72.23
2023-02-13T13:51:37.881Z,73.18
2023-02-13T13:54:07.844Z,72.86
2023-02-13T13:56:53.455Z,72.55
2023-02-13T13:59:51.782Z,72.88
2023-02-13T14:02:18.838Z,72.21
2023-02-13T14:05:13.537Z,72.43
2023-02-13T14:07:41.973Z,72.20
2023-02-13T14:10:21.352Z,71.37
2023-02-13T14:13:09.968Z,70.19
2023-02-13T14:15:40.000Z,69.91
2023-02-13T14:18:22.321Z,70.19
2023-02-13T14:20:52.449Z,70.29
2023-02-13T14:23:45.644Z,70.04
2023-02-13T14:26:15.593Z,70.78
2023-02-13T14:28:50.053Z,70.45
2023-02-13T14:31:34.414Z,71.39
2023-02-13T14:34:14.475Z,70.70
2023-02-13T14:36:46.721Z,70.30
2023-02-13T14:39:16.625Z,69.97
2023-02-13T14:41:55.103Z,69.31
2023-02-13T14:44:35.989Z,69.76
2023-02-13T14:47:16.981Z,68.90
2023-02-13T14:49:45.392Z,69.36
2023-02-13T14:52:30.218Z,69.03
2023-02-13T14:55:07.643Z,69.10
2023-02-13T14:57:54.013Z,69.80
2023-02-13T15:00:29.888Z,69.11
2023-02-13T15:03:04.243Z,69.11
2023-02-13T15:05:36.090Z,69.13
2023-02-13T15:08:15.564Z,68.40
2023-02-13T15:10:49.693Z,68.83
2023-02-13T15:13:21.614Z,68.29
2023-02-13T15:16:15.231Z,69.94
2023-02-13T15:18:49.979Z,69.44
2023-02-13T15:21:21.461Z,68.24
2023-02-13T15:23:56.902Z,68.94
2023-02-13T15:26:28.025Z,69.48
2023-02-13T15:29:05.804Z,69.80
2023-02-13T15:31:35.570Z,67.43
2023-02-13T15:34:02.739Z,68.30
2023-02-13T15:36:50.002Z,69.57
2023-02-13T15:39:23.227Z,69.00
2023-02-13T15:41:54.715Z,68.84
2023-02-13T15:44:30.084Z,69.53
2023-02-13T15:47:14.488Z,70.13
2023-02-13T15:49:47.360Z,69.47
2023-02-13T15:52:37.336Z,69.36
2023-02-13T15:55:04.894Z,69.72
2023-02-13T15:57:32.222Z,68.29
2023-02-13T16:00:01.317Z,69.31
2023-02-13T16:02:47.829Z,69.95
2023-02-13T16:05:20.044Z,71.33
2023-02-13T16:07:59.496Z,71.54
2023-02-13T16:10:32.038Z,71.74
2023-02-13T16:13:06.197Z,72.26
2023-02-13T16:15:36.526Z,72.43
2023-02-13T16:18:06.301Z,73.08
2023-02-13T16:20:34.734Z,73.04
2023-02-13T16:23:10.423Z,74.64
2023-02-13T16:25:41.928Z,73.47
2023-02-13T16:28:23.700Z,74.79
2023-02-13T16:31:03.012Z,74.22
2023-02-13T16:33:32.082Z,74.91
2023-02-13T16:36:09.465Z,76.14
2023-02-13T16:38:50.002Z,76.46
2023-02-13T16:41:23.104Z,76.30
2023-02-13T16:44:03.695Z,76.63
2023-02-13T16:46:45.332Z,77.09
2023-02-13T16:49:40.846Z,78.34
2023-02-13T16:52:19.009Z,78.49
2023-02-13T16:55:00.956Z,79.17
2023-02-13T16:57:35.194Z,79.66
2023-02-13T17:00:24.438Z,79.94
2023-02-13T17:02:51.696Z,79.99
2023-02-13T17:05:25.959Z,80.58
2023-02-13T17:07:58.011Z,82.09
2023-02-13T17:10:33.987Z,82.61
2023-02-13T17:13:12.111Z,82.92
2023-02-13T17:15:44.330Z,83.56
2023-02-13T17:18:11.395Z,84.40
2023-02-13T17:20:43.111Z,84.94
2023-02-13T17:23:22.581Z,85.69
2023-02-13T17:25:52.737Z,86.03
2023-02-13T17:28:25.051Z,86.69
2023-02-13T17:30:56.399Z,87.41
2023-02-13T17:33:29.158Z,87.41
2023-02-13T17:35:56.282Z,88.31
2023-02-13T17:38:23.752Z,88.49
2023-02-13T17:40:51.908Z,88.77
2023-02-13T17:43:20.715Z,88.91
2023-02-13T17:45:49.803Z,88.94
2023-02-13T17:48:17.546Z,90.06
2023-02-13T17:50:45.287Z,91.11
2023-02-13T17:53:32.155Z,92.09
2023-02-13T17:55:59.740Z,92.66
2023-02-13T17:58:26.955Z,93.09
2023-02-13T18:00:54.058Z,93.64
2023-02-13T18:03:22.511Z,93.55
2023-02-13T18:05:50.227Z,93.65
2023-02-13T18:08:17.875Z,95.19
2023-02-13T18:10:44.932Z,95.76
2023-02-13T18:13:12.948Z,96.10
2023-02-13T18:15:44.187Z,96.14
2023-02-13T18:18:12.947Z,95.95
2023-02-13T18:20:39.984Z,96.88
2023-02-13T18:23:07.345Z,97.00
2023-02-13T18:25:35.308Z,97.50
2023-02-13T18:28:02.469Z,97.79
2023-02-13T18:30:29.659Z,97.96
2023-02-13T18:32:59.116Z,98.85
2023-02-13T18:35:26.910Z,100.00
2023-02-13T18:37:54.318Z,100.00
2023-02-13T18:40:21.625Z,100.00
2023-02-13T18:42:51.064Z,100.00
2023-02-13T18:45:18.431Z,100.00
2023-02-13T18:48:03.178Z,100.00
2023-02-13T18:50:30.660Z,100.00
2023-02-13T18:52:57.633Z,100.00
2023-02-13T18:55:24.667Z,100.00
2023-02-13T18:57:54.502Z,100.00
2023-02-13T19:00:23.345Z,100.00
2023-02-13T19:02:50.363Z,100.00
2023-02-13T19:05:17.629Z,100.00
2023-02-13T19:07:44.709Z,100.00
2023-02-13T19:10:11.975Z,100.00
2023-02-13T19:12:39.020Z,100.00
2023-02-13T19:15:06.436Z,100.00
2023-02-13T19:17:35.598Z,100.00
2023-02-13T19:20:03.097Z,100.00
2023-02-13T19:22:30.156Z,100.00
2023-02-13T19:24:57.210Z,100.00
2023-02-13T19:27:24.363Z,100.00
2023-02-13T19:29:51.526Z,100.00
2023-02-13T19:32:18.635Z,100.00
2023-02-13T19:34:46.969Z,100.00
2023-02-13T19:37:13.917Z,100.00
2023-02-13T19:39:43.359Z,100.00
2023-02-13T19:42:10.531Z,100.00
2023-02-13T19:44:37.540Z,100.00
2023-02-13T19:47:04.786Z,100.00
2023-02-13T19:49:31.718Z,100.00
2023-02-13T19:52:01.747Z,100.00
2023-02-13T19:54:29.098Z,100.00
2023-02-13T19:57:00.488Z,100.00
2023-02-13T19:59:27.958Z,100.00
2023-02-13T20:01:55.360Z,100.00
2023-02-13T20:04:23.202Z,100.00
2023-02-13T20:06:51.200Z,100.00
2023-02-13T20:09:18.444Z,100.00
2023-02-13T20:11:45.698Z,100.00
2023-02-13T20:14:15.314Z,100.00
2023-02-13T20:16:45.657Z,100.00
2023-02-13T20:24:30.853Z,100.00
2023-02-13T20:26:59.228Z,100.00
2023-02-13T20:29:26.436Z,100.00
2023-02-13T20:31:54.125Z,100.00
2023-02-13T20:34:21.412Z,100.00
2023-02-13T20:36:48.479Z,100.00
2023-02-13T20:39:15.503Z,100.00
2023-02-13T20:41:48.593Z,100.00
2023-02-13T20:44:17.345Z,100.00
2023-02-13T20:46:44.351Z,100.00
2023-02-13T20:49:12.850Z,100.00
2023-02-13T20:51:39.952Z,100.00
2023-02-13T20:54:07.480Z,100.00
2023-02-13T20:56:36.146Z,100.00
2023-02-13T20:59:05.385Z,100.00
2023-02-13T21:01:40.384Z,100.00
2023-02-13T21:04:13.811Z,100.00
2023-02-13T21:06:42.237Z,100.00
2023-02-13T21:09:10.121Z,100.00
2023-02-13T21:11:39.829Z,100.00
2023-02-13T21:14:07.182Z,100.00
2023-02-13T21:16:38.916Z,100.00
2023-02-13T21:19:13.710Z,100.00
2023-02-13T21:21:44.255Z,100.00
2023-02-13T21:24:18.472Z,100.00
2023-02-13T21:26:46.081Z,100.00
2023-02-13T21:29:13.418Z,100.00
2023-02-13T21:31:51.237Z,100.00
2023-02-13T21:34:18.519Z,100.00
2023-02-13T21:36:45.935Z,100.00
2023-02-13T21:39:13.786Z,100.00
2023-02-13T21:41:44.057Z,100.00
2023-02-13T21:44:15.873Z,100.00
2023-02-13T21:46:44.604Z,100.00
2023-02-13T21:49:15.252Z,100.00
2023-02-13T21:51:42.608Z,100.00
2023-02-13T21:54:10.204Z,100.00
2023-02-13T21:56:40.757Z,100.00
2023-02-13T21:59:08.391Z,100.00
2023-02-13T22:01:37.994Z,100.00
2023-02-13T22:04:09.179Z,100.00
2023-02-13T22:06:39.381Z,100.00
2023-02-13T22:09:09.060Z,100.00
2023-02-13T22:11:36.915Z,100.00
2023-02-13T22:14:07.037Z,100.00
2023-02-13T22:16:38.895Z,100.00
2023-02-13T22:19:08.680Z,100.00
2023-02-13T22:21:36.822Z,100.00
2023-02-13T22:24:04.770Z,100.00
2023-02-13T22:26:38.391Z,100.00
2023-02-13T22:29:12.056Z,100.00
2023-02-13T22:31:39.701Z,100.00
2023-02-13T22:34:07.237Z,100.00
2023-02-13T22:36:40.330Z,100.00
2023-02-13T22:39:10.266Z,100.00
2023-02-13T22:41:37.979Z,100.00
2023-02-13T22:44:05.259Z,100.00
2023-02-13T22:46:33.960Z,100.00
2023-02-13T22:49:01.649Z,100.00
2023-02-13T22:51:36.062Z,100.00
2023-02-13T22:54:04.317Z,100.00
2023-02-13T22:56:32.520Z,100.00
2023-02-13T22:59:00.303Z,100.00
2023-02-13T23:01:28.942Z,100.00
2023-02-13T23:03:56.988Z,100.00
2023-02-13T23:06:24.591Z,100.00
2023-02-13T23:08:54.551Z,100.00
2023-02-13T23:11:44.668Z,100.00
2023-02-13T23:14:12.645Z,100.00
2023-02-13T23:17:00.410Z,100.00
2023-02-13T23:19:29.783Z,100.00
2023-02-13T23:21:57.058Z,100.00
2023-02-13T23:24:24.121Z,100.00
2023-02-13T23:26:54.567Z,100.00
2023-02-13T23:29:21.674Z,100.00
2023-02-13T23:31:48.788Z,100.00
2023-02-13T23:34:15.881Z,100.00
2023-02-13T23:36:42.880Z,100.00
2023-02-13T23:39:10.081Z,100.00
2023-02-13T23:41:37.077Z,100.00
2023-02-13T23:44:04.173Z,100.00
2023-02-13T23:46:31.206Z,100.00
2023-02-13T23:48:58.234Z,100.00
2023-02-13T23:51:25.738Z,100.00
2023-02-13T23:53:56.260Z,100.00
2023-02-13T23:56:25.306Z,100.00
2023-02-13T23:58:53.086Z,100.00
